createdAt,value
2022-11-12T02:41:07.717Z,10.10
2022-11-12T02:42:10.954Z,10.10
2022-11-12T02:43:13.072Z,10.10
2022-11-12T02:44:16.307Z,10.10
2022-11-12T02:45:19.652Z,10.20
2022-11-12T02:46:23.052Z,10.10
2022-11-12T02:47:25.296Z,10.20
2022-11-12T02:48:28.816Z,10.20
2022-11-12T02:49:35.539Z,10.20
2022-11-12T02:50:38.777Z,10.20
2022-11-12T02:51:41.227Z,10.30
2022-11-12T02:52:44.434Z,10.30
2022-11-12T02:53:46.837Z,10.30
2022-11-12T02:54:50.271Z,10.30
2022-11-12T02:55:52.609Z,10.40
2022-11-12T02:56:57.504Z,10.40
2022-11-12T02:58:00.049Z,10.40
2022-11-12T02:59:07.082Z,10.40
2022-11-12T03:00:12.440Z,10.40
2022-11-12T03:01:15.996Z,10.40
2022-11-12T03:02:18.565Z,10.40
2022-11-12T03:03:22.027Z,10.40
2022-11-12T03:04:24.427Z,10.50
2022-11-12T03:05:30.716Z,10.50
2022-11-12T03:06:34.276Z,10.50
2022-11-12T03:07:43.111Z,10.50
2022-11-12T03:08:46.547Z,10.50
2022-11-12T03:09:48.903Z,10.50
2022-11-12T03:10:52.533Z,10.50
2022-11-12T03:11:56.097Z,10.50
2022-11-12T03:13:01.088Z,10.50
2022-11-12T03:14:04.583Z,10.50
2022-11-12T03:15:08.174Z,10.50
2022-11-12T03:16:14.075Z,10.50
2022-11-12T03:17:17.052Z,10.50
2022-11-12T03:18:20.707Z,10.50
2022-11-12T03:19:23.068Z,10.50
2022-11-12T03:20:27.165Z,10.60
2022-11-12T03:21:29.738Z,10.60
2022-11-12T03:22:33.168Z,10.60
2022-11-12T03:23:35.604Z,10.60
2022-11-12T03:24:38.878Z,10.60
2022-11-12T03:25:41.303Z,10.60
2022-11-12T03:26:44.703Z,10.60
2022-11-12T03:27:49.930Z,10.60
2022-11-12T03:28:53.526Z,10.60
2022-11-12T03:29:55.863Z,10.60
2022-11-12T03:31:00.976Z,10.70
2022-11-12T03:32:03.435Z,10.60
2022-11-12T03:33:09.319Z,10.70
2022-11-12T03:34:11.597Z,10.70
2022-11-12T03:35:15.396Z,10.70
2022-11-12T03:36:17.796Z,10.70
2022-11-12T03:37:21.172Z,10.70
2022-11-12T03:38:24.427Z,10.60
2022-11-12T03:39:27.984Z,10.60
2022-11-12T03:40:31.460Z,10.60
2022-11-12T03:41:35.082Z,10.60
2022-11-12T03:42:37.449Z,10.60
2022-11-12T03:43:43.943Z,10.60
2022-11-12T03:44:46.243Z,10.60
2022-11-12T03:45:49.609Z,10.50
2022-11-12T03:46:55.071Z,10.60
2022-11-12T03:47:59.905Z,10.60
2022-11-12T03:49:02.795Z,10.50
2022-11-12T03:50:07.254Z,10.60
2022-11-12T03:51:12.300Z,10.60
2022-11-12T03:52:14.641Z,10.60
2022-11-12T03:53:18.006Z,10.60
2022-11-12T03:54:20.325Z,10.60
2022-11-12T03:55:26.288Z,10.50
2022-11-12T03:56:28.580Z,10.60
2022-11-12T03:57:31.982Z,10.50
2022-11-12T03:58:34.240Z,10.50
2022-11-12T03:59:38.957Z,10.60
2022-11-12T04:00:41.197Z,10.50
2022-11-12T04:01:44.409Z,10.60
2022-11-12T04:02:46.839Z,10.50
2022-11-12T04:03:50.101Z,10.60
2022-11-12T04:05:11.406Z,10.60
2022-11-12T04:06:32.208Z,10.60
2022-11-12T04:07:52.898Z,10.60
2022-11-12T04:08:56.227Z,10.60
2022-11-12T04:09:58.600Z,10.60
2022-11-12T04:11:02.481Z,10.60
2022-11-12T04:12:19.919Z,10.60
2022-11-12T04:13:29.272Z,10.60
2022-11-12T04:14:31.765Z,10.60
2022-11-12T04:15:36.523Z,10.60
2022-11-12T04:17:02.605Z,10.60
2022-11-12T04:18:24.101Z,10.60
2022-11-12T04:19:56.582Z,10.60
2022-11-12T04:21:17.139Z,10.60
2022-11-12T04:22:20.652Z,10.60
2022-11-12T04:23:22.974Z,10.60
2022-11-12T04:24:45.576Z,10.50
2022-11-12T04:26:06.613Z,10.50
2022-11-12T04:27:12.204Z,10.50
2022-11-12T04:28:14.635Z,10.40
2022-11-12T04:29:37.504Z,10.40
2022-11-12T04:30:42.560Z,10.30
2022-11-12T04:31:44.849Z,10.30
2022-11-12T04:32:50.775Z,10.30
2022-11-12T04:33:53.046Z,10.30
2022-11-12T04:34:56.839Z,10.30
2022-11-12T04:35:59.232Z,10.30
2022-11-12T04:37:02.057Z,10.30
2022-11-12T04:38:07.729Z,10.20
2022-11-12T04:39:10.805Z,10.20
2022-11-12T04:40:33.011Z,10.20
2022-11-12T04:41:53.850Z,10.10
2022-11-12T04:43:14.410Z,10.10
2022-11-12T04:44:34.844Z,10.10
2022-11-12T04:45:41.894Z,10.10
2022-11-12T04:46:44.135Z,10.10
2022-11-12T04:47:47.520Z,10.10
2022-11-12T04:48:51.735Z,10.10
2022-11-12T04:49:55.036Z,10.10
2022-11-12T04:51:00.925Z,10.10
2022-11-12T04:52:06.001Z,10.10
2022-11-12T04:53:09.288Z,10.10
2022-11-12T04:54:11.648Z,10.10
2022-11-12T04:55:17.438Z,10.10
2022-11-12T04:56:19.759Z,10.10
2022-11-12T04:57:23.660Z,10.10
2022-11-12T04:58:26.888Z,10.10
2022-11-12T04:59:30.308Z,10.10
2022-11-12T05:00:32.766Z,10.20
2022-11-12T05:01:37.482Z,10.20
2022-11-12T05:02:39.819Z,10.20
2022-11-12T05:03:43.220Z,10.20
2022-11-12T05:04:45.429Z,10.20
2022-11-12T05:05:48.761Z,10.20
2022-11-12T05:06:53.856Z,10.20
2022-11-12T05:08:00.403Z,10.20
2022-11-12T05:09:02.713Z,10.30
2022-11-12T05:10:06.612Z,10.20
2022-11-12T05:11:12.800Z,10.20
2022-11-12T05:12:16.926Z,10.20
2022-11-12T05:13:19.094Z,10.20
2022-11-12T05:14:23.035Z,10.20
2022-11-12T05:15:25.815Z,10.20
2022-11-12T05:16:30.953Z,10.20
2022-11-12T05:17:35.725Z,10.20
2022-11-12T05:18:38.091Z,10.20
2022-11-12T05:19:42.020Z,10.20
2022-11-12T05:20:44.305Z,10.20
2022-11-12T05:22:05.412Z,10.20
2022-11-12T05:23:08.662Z,10.20
2022-11-12T05:24:27.355Z,10.20
2022-11-12T05:25:35.101Z,10.20
2022-11-12T05:26:37.418Z,10.20
2022-11-12T05:27:40.747Z,10.10
2022-11-12T05:28:42.882Z,10.10
2022-11-12T05:29:46.587Z,10.10
2022-11-12T05:30:49.154Z,10.10
2022-11-12T05:31:52.389Z,10.10
2022-11-12T05:32:57.362Z,10.10
2022-11-12T05:33:59.786Z,10.20
2022-11-12T05:35:03.161Z,10.20
2022-11-12T05:36:05.797Z,10.20
2022-11-12T05:37:10.574Z,10.20
2022-11-12T05:38:12.842Z,10.20
2022-11-12T05:39:17.915Z,10.20
2022-11-12T05:40:20.474Z,10.20
2022-11-12T05:41:23.915Z,10.20
2022-11-12T05:42:27.572Z,10.20
2022-11-12T05:43:29.990Z,10.20
2022-11-12T05:44:33.484Z,10.20
2022-11-12T05:45:35.770Z,10.20
2022-11-12T05:46:39.071Z,10.20
2022-11-12T05:47:42.336Z,10.20
2022-11-12T05:48:48.678Z,10.20
2022-11-12T05:49:52.349Z,10.30
2022-11-12T05:52:18.406Z,10.20
2022-11-12T05:53:20.833Z,10.20
2022-11-12T05:54:24.988Z,10.20
2022-11-12T05:55:27.296Z,10.20
2022-11-12T05:56:34.710Z,10.30
2022-11-12T05:57:38.088Z,10.30
2022-11-12T05:58:40.397Z,10.30
2022-11-12T05:59:43.748Z,10.30
2022-11-12T06:00:46.041Z,10.30
2022-11-12T06:01:52.661Z,10.30
2022-11-12T06:02:59.859Z,10.30
2022-11-12T06:04:04.535Z,10.30
2022-11-12T06:05:07.413Z,10.30
2022-11-12T06:06:10.846Z,10.30
2022-11-12T06:07:13.672Z,10.40
2022-11-12T06:08:18.981Z,10.30
2022-11-12T06:09:24.989Z,10.30
2022-11-12T06:10:28.070Z,10.40
2022-11-12T06:11:31.359Z,10.40
2022-11-12T06:12:33.737Z,10.40
2022-11-12T06:13:42.398Z,10.40
2022-11-12T06:14:44.781Z,10.30
2022-11-12T06:15:48.319Z,10.30
2022-11-12T06:16:51.703Z,10.30
2022-11-12T06:17:54.504Z,10.20
2022-11-12T06:18:58.171Z,10.20
2022-11-12T06:20:05.987Z,10.20
2022-11-12T06:21:21.973Z,10.20
2022-11-12T06:22:25.299Z,10.20
2022-11-12T06:23:27.561Z,10.10
2022-11-12T06:24:35.140Z,10.20
2022-11-12T06:25:37.647Z,10.20
2022-11-12T06:26:44.263Z,10.20
2022-11-12T06:27:46.582Z,10.20
2022-11-12T06:28:52.055Z,10.20
2022-11-12T06:29:54.521Z,10.20
2022-11-12T06:30:59.472Z,10.20
2022-11-12T06:32:02.939Z,10.20
2022-11-12T06:33:05.401Z,10.20
2022-11-12T06:34:10.154Z,10.20
2022-11-12T06:35:14.076Z,10.20
2022-11-12T06:36:20.143Z,10.20
2022-11-12T06:37:22.402Z,10.20
2022-11-12T06:38:25.837Z,10.30
2022-11-12T06:39:29.156Z,10.20
2022-11-12T06:40:31.323Z,10.20
2022-11-12T06:41:34.753Z,10.30
2022-11-12T06:42:37.282Z,10.20
2022-11-12T06:43:41.920Z,10.30
2022-11-12T06:44:44.071Z,10.30
2022-11-12T06:45:47.145Z,10.30
2022-11-12T06:46:49.364Z,10.30
2022-11-12T06:47:53.594Z,10.30
2022-11-12T06:48:56.661Z,10.30
2022-11-12T06:49:58.964Z,10.30
2022-11-12T06:51:10.334Z,10.30
2022-11-12T06:52:16.541Z,10.30
2022-11-12T06:53:19.959Z,10.30
2022-11-12T06:54:22.033Z,10.30
2022-11-12T06:55:25.120Z,10.30
2022-11-12T06:56:28.254Z,10.30
2022-11-12T06:57:30.436Z,10.30
2022-11-12T06:58:34.295Z,10.30
2022-11-12T06:59:36.671Z,10.30
2022-11-12T07:00:39.760Z,10.20
2022-11-12T07:01:41.920Z,10.20
2022-11-12T07:02:45.157Z,10.20
2022-11-12T07:03:51.963Z,10.20
2022-11-12T07:04:54.075Z,10.20
2022-11-12T07:05:57.522Z,10.20
2022-11-12T07:07:01.075Z,10.20
2022-11-12T07:08:04.607Z,10.10
2022-11-12T07:09:07.265Z,10.10
2022-11-12T07:10:11.046Z,10.10
2022-11-12T07:11:13.788Z,10.10
2022-11-12T07:12:16.910Z,10.10
2022-11-12T07:13:19.986Z,10.10
2022-11-12T07:14:22.142Z,10.10
2022-11-12T07:15:25.330Z,10.10
2022-11-12T07:16:27.459Z,10.10
2022-11-12T07:17:30.581Z,10.10
2022-11-12T07:18:35.050Z,10.10
2022-11-12T07:19:37.168Z,10.10
2022-11-12T07:20:40.270Z,10.10
2022-11-12T07:21:42.358Z,10.10
2022-11-12T07:22:46.818Z,10.10
2022-11-12T07:23:48.956Z,10.10
2022-11-12T07:24:52.111Z,10.10
2022-11-12T07:25:59.217Z,10.00
2022-11-12T07:27:02.325Z,10.00
2022-11-12T07:28:04.738Z,10.00
2022-11-12T07:29:08.232Z,10.10
2022-11-12T07:30:11.297Z,10.10
2022-11-12T07:31:17.047Z,10.00
2022-11-12T07:32:19.140Z,10.00
2022-11-12T07:33:22.259Z,10.10
2022-11-12T07:34:24.430Z,10.10
2022-11-12T07:35:27.628Z,10.10
2022-11-12T07:36:29.722Z,10.10
2022-11-12T07:37:32.823Z,10.10
2022-11-12T07:38:38.312Z,10.10
2022-11-12T07:39:41.404Z,10.10
2022-11-12T07:40:43.544Z,10.10
2022-11-12T07:41:46.600Z,10.10
2022-11-12T07:42:49.731Z,10.10
2022-11-12T07:43:54.659Z,10.20
2022-11-12T07:44:56.770Z,10.10
2022-11-12T07:46:03.587Z,10.20
2022-11-12T07:47:08.260Z,10.20
2022-11-12T07:48:11.380Z,10.30
2022-11-12T07:49:13.516Z,10.30
2022-11-12T07:50:16.941Z,10.30
2022-11-12T07:51:22.471Z,10.30
2022-11-12T07:52:25.550Z,10.30
2022-11-12T07:53:27.848Z,10.30
2022-11-12T07:54:32.357Z,10.40
2022-11-12T07:55:34.457Z,10.40
2022-11-12T07:56:37.630Z,10.40
2022-11-12T07:57:40.750Z,10.40
2022-11-12T07:58:43.231Z,10.30
2022-11-12T07:59:46.688Z,10.30
2022-11-12T08:00:48.827Z,10.30
2022-11-12T08:01:52.007Z,10.30
2022-11-12T08:02:55.104Z,10.30
2022-11-12T08:03:57.351Z,10.30
2022-11-12T08:05:00.447Z,10.30
2022-11-12T08:06:02.813Z,10.20
2022-11-12T08:07:06.070Z,10.20
2022-11-12T08:08:08.371Z,10.10
2022-11-12T08:09:11.803Z,10.10
2022-11-12T08:10:15.487Z,10.10
2022-11-12T08:11:18.632Z,10.20
2022-11-12T08:12:21.701Z,10.30
2022-11-12T08:13:24.227Z,10.30
2022-11-12T08:14:27.394Z,10.30
2022-11-12T08:15:29.521Z,10.40
2022-11-12T08:16:33.264Z,10.40
2022-11-12T08:17:39.278Z,10.40
2022-11-12T08:18:42.769Z,10.40
2022-11-12T08:19:45.889Z,10.50
2022-11-12T08:20:48.008Z,10.60
2022-11-12T08:21:51.127Z,10.60
2022-11-12T08:22:53.308Z,10.60
2022-11-12T08:23:56.415Z,10.60
2022-11-12T08:24:58.563Z,10.70
2022-11-12T08:26:04.784Z,10.70
2022-11-12T08:27:07.880Z,10.80
2022-11-12T08:28:10.011Z,10.80
2022-11-12T08:29:13.376Z,10.80
2022-11-12T08:30:15.551Z,10.90
2022-11-12T08:31:21.338Z,10.90
2022-11-12T08:32:23.495Z,10.90
2022-11-12T08:33:26.996Z,10.90
2022-11-12T08:34:30.120Z,11.00
2022-11-12T08:35:33.332Z,11.00
2022-11-12T08:36:36.705Z,11.00
2022-11-12T08:37:38.848Z,11.00
2022-11-12T08:38:42.717Z,11.00
2022-11-12T08:39:45.789Z,11.10
2022-11-12T08:40:47.969Z,11.00
2022-11-12T08:41:52.589Z,11.10
2022-11-12T08:42:58.988Z,11.10
2022-11-12T08:44:08.115Z,11.10
2022-11-12T08:45:12.119Z,11.10
2022-11-12T08:46:15.215Z,11.20
2022-11-12T08:47:17.292Z,11.30
2022-11-12T08:48:20.454Z,11.30
2022-11-12T08:49:23.749Z,11.40
2022-11-12T08:50:25.901Z,11.40
2022-11-12T08:51:29.045Z,11.40
2022-11-12T08:52:31.494Z,11.40
2022-11-12T08:53:34.787Z,11.50
2022-11-12T08:54:36.883Z,11.50
2022-11-12T08:55:40.871Z,11.50
2022-11-12T08:56:43.955Z,11.50
2022-11-12T08:57:47.427Z,11.60
2022-11-12T08:58:50.598Z,11.50
2022-11-12T08:59:53.663Z,11.50
2022-11-12T09:00:57.005Z,11.50
2022-11-12T09:02:00.225Z,11.60
2022-11-12T09:03:03.289Z,11.50
2022-11-12T09:04:06.552Z,11.50
2022-11-12T09:05:09.285Z,11.40
2022-11-12T09:06:12.391Z,11.30
2022-11-12T09:07:43.321Z,11.30
2022-11-12T09:08:38.132Z,11.30
2022-11-12T09:09:41.210Z,11.20
2022-11-12T09:10:44.063Z,11.30
2022-11-12T09:11:47.163Z,11.20
2022-11-12T09:12:53.300Z,11.20
2022-11-12T09:13:56.465Z,11.20
2022-11-12T09:15:09.557Z,11.20
2022-11-12T09:16:24.083Z,11.20
2022-11-12T09:17:26.433Z,11.20
2022-11-12T09:18:30.021Z,11.30
2022-11-12T09:19:32.283Z,11.30
2022-11-12T09:20:35.824Z,11.30
2022-11-12T09:21:38.878Z,11.30
2022-11-12T09:22:40.983Z,11.40
2022-11-12T09:23:44.058Z,11.40
2022-11-12T09:24:46.168Z,11.40
2022-11-12T09:25:49.604Z,11.30
2022-11-12T09:26:53.146Z,11.30
2022-11-12T09:27:57.629Z,11.30
2022-11-12T09:29:00.838Z,11.30
2022-11-12T09:30:03.160Z,11.30
2022-11-12T09:31:09.465Z,11.30
2022-11-12T09:32:11.656Z,11.20
2022-11-12T09:33:15.044Z,11.20
2022-11-12T09:34:18.465Z,11.20
2022-11-12T09:35:20.542Z,11.10
2022-11-12T09:36:23.889Z,11.10
2022-11-12T09:37:25.999Z,11.10
2022-11-12T09:38:29.527Z,11.10
2022-11-12T09:39:31.929Z,11.10
2022-11-12T09:41:01.595Z,11.10
2022-11-12T09:42:08.555Z,11.20
2022-11-12T09:43:23.253Z,11.20
2022-11-12T09:44:26.668Z,11.20
2022-11-12T09:45:32.632Z,11.10
2022-11-12T09:46:44.451Z,11.20
2022-11-12T09:47:53.074Z,11.10
2022-11-12T09:49:04.587Z,11.10
2022-11-12T09:50:22.411Z,11.10
2022-11-12T09:51:28.265Z,11.10
2022-11-12T09:52:32.039Z,11.20
2022-11-12T09:53:44.983Z,11.30
2022-11-12T09:54:58.255Z,11.30
2022-11-12T09:56:05.625Z,11.40
2022-11-12T09:57:13.641Z,11.50
2022-11-12T09:58:19.550Z,11.50
2022-11-12T09:59:24.987Z,11.50
2022-11-12T10:00:27.399Z,11.60
2022-11-12T10:01:44.969Z,11.60
2022-11-12T10:02:56.476Z,11.70
2022-11-12T10:04:21.704Z,11.70
2022-11-12T10:05:34.528Z,11.80
2022-11-12T10:06:50.024Z,11.90
2022-11-12T10:08:08.926Z,12.00
2022-11-12T10:09:19.905Z,12.10
2022-11-12T10:10:36.070Z,12.20
2022-11-12T10:12:14.290Z,12.20
2022-11-12T10:13:34.732Z,12.40
2022-11-12T10:14:56.018Z,12.50
2022-11-12T10:16:39.953Z,12.50
2022-11-12T10:17:52.625Z,12.50
2022-11-12T10:19:26.219Z,12.50
2022-11-12T10:20:39.048Z,12.50
2022-11-12T10:21:52.574Z,12.60
2022-11-12T10:23:16.619Z,12.60
2022-11-12T10:24:22.656Z,12.70
2022-11-12T10:25:27.217Z,12.80
2022-11-12T10:26:34.670Z,12.80
2022-11-12T10:27:40.732Z,12.90
2022-11-12T10:28:49.121Z,13.00
2022-11-12T10:29:59.900Z,13.00
2022-11-12T10:31:12.057Z,13.10
2022-11-12T10:32:16.408Z,13.20
2022-11-12T10:33:19.499Z,13.30
2022-11-12T10:34:23.070Z,13.40
2022-11-12T10:35:26.238Z,13.50
2022-11-12T10:36:34.509Z,13.50
2022-11-12T10:37:47.569Z,13.40
2022-11-12T10:38:55.363Z,13.40
2022-11-12T10:39:58.911Z,13.50
2022-11-12T10:41:19.533Z,13.50
2022-11-12T10:42:24.589Z,13.50
2022-11-12T10:43:26.654Z,13.50
2022-11-12T10:44:31.178Z,13.40
2022-11-12T10:45:33.519Z,13.30
2022-11-12T10:46:39.180Z,13.30
2022-11-12T10:50:21.504Z,13.30
2022-11-12T10:51:27.781Z,13.40
2022-11-12T10:52:30.947Z,13.50
2022-11-12T10:53:36.946Z,13.50
2022-11-12T10:54:42.052Z,13.50
2022-11-12T10:55:57.808Z,13.50
2022-11-12T10:57:21.946Z,13.50
2022-11-12T10:58:24.296Z,13.50
2022-11-12T10:59:27.780Z,13.60
2022-11-12T11:00:32.031Z,13.60
2022-11-12T11:01:36.018Z,13.60
2022-11-12T11:02:48.167Z,13.60
2022-11-12T11:03:58.692Z,13.70
2022-11-12T11:05:00.893Z,13.70
2022-11-12T11:06:07.543Z,13.70
2022-11-12T11:07:23.241Z,13.70
2022-11-12T11:08:40.551Z,13.80
2022-11-12T11:09:56.328Z,13.80
2022-11-12T11:11:18.406Z,13.80
2022-11-12T11:12:26.059Z,13.90
2022-11-12T11:13:28.659Z,13.90
2022-11-12T11:14:34.640Z,14.00
2022-11-12T11:15:38.705Z,14.00
2022-11-12T11:16:52.040Z,14.00
2022-11-12T11:17:56.259Z,14.10
2022-11-12T11:19:02.772Z,14.10
2022-11-12T11:20:14.524Z,14.10
2022-11-12T11:24:02.972Z,14.00
2022-11-12T11:25:21.445Z,14.00
2022-11-12T11:26:43.593Z,14.00
2022-11-12T11:28:20.235Z,14.00
2022-11-12T11:30:03.135Z,14.00
2022-11-12T11:31:26.899Z,14.00
2022-11-12T11:37:29.260Z,14.00
2022-11-12T11:38:39.169Z,14.00
2022-11-12T11:39:55.772Z,14.00
2022-11-12T11:41:18.990Z,14.00
2022-11-12T11:42:52.934Z,14.10
2022-11-12T11:44:13.628Z,14.10
2022-11-12T11:45:20.204Z,14.10
2022-11-12T11:46:41.227Z,14.20
2022-11-12T11:48:01.705Z,14.20
2022-11-12T11:49:24.734Z,14.30
2022-11-12T11:50:30.239Z,14.30
2022-11-12T11:52:02.277Z,14.30
2022-11-12T11:54:09.495Z,14.40
2022-11-12T11:55:57.603Z,14.40
2022-11-12T11:57:37.937Z,14.40
2022-11-12T12:09:39.315Z,14.30
2022-11-12T12:11:08.297Z,14.30
2022-11-12T12:12:36.173Z,14.40
2022-11-12T12:16:17.793Z,14.50
2022-11-12T12:17:47.151Z,14.60
2022-11-12T12:22:04.767Z,14.60
2022-11-12T12:23:36.715Z,14.70
2022-11-12T12:25:12.819Z,14.80
2022-11-12T12:26:44.363Z,14.80
2022-11-12T12:28:22.012Z,14.90
2022-11-12T12:30:07.255Z,15.00
2022-11-12T12:31:15.529Z,15.10
2022-11-12T12:32:44.727Z,15.20
2022-11-12T12:34:45.762Z,15.20
2022-11-12T12:35:56.974Z,15.30
2022-11-12T12:37:05.488Z,15.40
2022-11-12T12:38:19.051Z,15.40
2022-11-12T12:46:08.502Z,15.70
2022-11-12T12:50:26.586Z,15.90
2022-11-12T12:52:04.846Z,15.90
2022-11-12T12:53:43.835Z,15.90
2022-11-12T12:54:56.818Z,15.90
2022-11-12T12:57:41.736Z,15.90
2022-11-12T12:58:55.208Z,16.00
2022-11-12T13:00:48.213Z,16.00
2022-11-12T13:02:03.609Z,16.10
2022-11-12T13:03:07.140Z,16.20
2022-11-12T13:04:11.966Z,16.10
2022-11-12T13:05:27.484Z,16.10
2022-11-12T13:06:35.532Z,16.10
2022-11-12T13:07:43.509Z,16.00
2022-11-12T13:08:50.051Z,16.00
2022-11-12T13:09:53.277Z,15.90
2022-11-12T13:10:59.548Z,15.90
2022-11-12T13:12:20.052Z,15.90
2022-11-12T13:13:35.015Z,15.90
2022-11-12T13:15:22.214Z,15.90
2022-11-12T13:16:59.304Z,15.90
2022-11-12T13:18:02.613Z,15.90
2022-11-12T13:19:04.995Z,15.90
2022-11-12T13:20:33.506Z,15.90
2022-11-12T13:21:41.228Z,15.90
2022-11-12T13:22:51.684Z,15.90
2022-11-12T13:24:07.750Z,15.90
2022-11-12T13:25:35.078Z,15.90
2022-11-12T13:32:03.243Z,16.00
2022-11-12T13:33:36.008Z,16.10
2022-11-12T14:19:11.123Z,16.20
2022-11-12T14:20:25.749Z,16.20
2022-11-12T14:21:28.804Z,16.20
2022-11-12T14:22:40.945Z,16.20
2022-11-12T14:23:48.832Z,16.20
2022-11-12T14:24:59.801Z,16.20
2022-11-12T14:26:02.895Z,16.30
2022-11-12T14:27:05.001Z,16.20
2022-11-12T14:28:25.792Z,16.20
2022-11-12T14:29:34.181Z,16.30
2022-11-12T14:30:44.957Z,16.20
2022-11-12T14:31:47.611Z,16.30
2022-11-12T14:32:53.640Z,16.30
2022-11-12T14:33:57.130Z,16.30
2022-11-12T14:35:00.256Z,16.30
2022-11-12T14:36:06.498Z,16.30
2022-11-12T14:37:37.195Z,16.30
2022-11-12T14:38:47.775Z,16.30
2022-11-12T14:39:50.550Z,16.30
2022-11-12T14:40:56.312Z,16.30
2022-11-12T14:42:00.413Z,16.30
2022-11-12T14:43:03.723Z,16.30
2022-11-12T14:44:12.686Z,16.20
2022-11-12T14:45:18.701Z,16.20
2022-11-12T14:46:26.596Z,16.20
2022-11-12T14:47:28.785Z,16.20
2022-11-12T14:48:37.292Z,16.10
2022-11-12T14:49:45.326Z,16.10
2022-11-12T14:50:52.841Z,16.00
2022-11-12T14:52:04.938Z,16.00
2022-11-12T14:53:19.305Z,16.00
2022-11-12T14:54:31.813Z,16.00
2022-11-12T14:55:36.802Z,15.90
2022-11-12T14:56:47.432Z,15.90
2022-11-12T14:57:50.036Z,15.80
2022-11-12T14:58:55.946Z,15.80
2022-11-12T14:59:58.462Z,15.70
2022-11-12T15:01:55.758Z,15.70
2022-11-12T15:02:57.335Z,15.60
2022-11-12T15:04:17.320Z,15.60
2022-11-12T15:05:23.638Z,15.60
2022-11-12T15:06:30.416Z,15.50
2022-11-12T15:07:36.170Z,15.50
2022-11-12T15:08:40.155Z,15.50
2022-11-12T15:09:43.265Z,15.50
2022-11-12T15:10:46.936Z,15.50
2022-11-12T15:11:50.523Z,15.50
2022-11-12T15:12:53.681Z,15.50
2022-11-12T15:14:00.965Z,15.50
2022-11-12T15:15:10.746Z,15.50
2022-11-12T15:16:20.650Z,15.50
2022-11-12T15:17:33.158Z,15.50
2022-11-12T15:18:38.939Z,15.40
2022-11-12T15:19:43.690Z,15.40
2022-11-12T15:21:10.210Z,15.40
2022-11-12T15:22:22.630Z,15.40
2022-11-12T15:23:26.131Z,15.30
2022-11-12T15:24:34.158Z,15.30
2022-11-12T15:25:37.406Z,15.30
2022-11-12T15:26:42.595Z,15.30
2022-11-12T15:27:45.945Z,15.30
2022-11-12T15:28:59.401Z,15.20
2022-11-12T15:30:16.293Z,15.20
2022-11-12T15:31:22.273Z,15.20
2022-11-12T15:32:34.387Z,15.10
2022-11-12T15:33:37.563Z,15.10
2022-11-12T15:34:48.298Z,15.10
2022-11-12T15:35:59.763Z,15.10
2022-11-12T15:37:05.683Z,15.10
2022-11-12T15:38:16.378Z,15.00
2022-11-12T15:39:19.945Z,15.00
2022-11-12T15:40:23.687Z,15.00
2022-11-12T15:41:30.427Z,14.90
2022-11-12T15:42:39.562Z,14.90
2022-11-12T15:43:43.149Z,14.80
2022-11-12T15:44:47.646Z,14.80
2022-11-12T15:45:51.203Z,14.80
2022-11-12T15:46:54.654Z,14.70
2022-11-12T15:47:57.732Z,14.70
2022-11-12T15:48:59.867Z,14.60
2022-11-12T15:50:16.438Z,14.60
2022-11-12T15:51:19.950Z,14.50
2022-11-12T15:52:23.944Z,14.50
2022-11-12T15:53:26.375Z,14.40
2022-11-12T15:54:29.756Z,14.40
2022-11-12T15:55:32.474Z,14.40
2022-11-12T15:56:35.637Z,14.30
2022-11-12T15:57:42.823Z,14.30
2022-11-12T15:58:45.447Z,14.30
2022-11-12T15:59:56.756Z,14.20
2022-11-12T16:01:00.346Z,14.20
2022-11-12T16:02:02.552Z,14.20
2022-11-12T16:03:15.425Z,14.20
2022-11-12T16:04:17.555Z,14.10
2022-11-12T16:05:20.690Z,14.10
2022-11-12T16:06:25.222Z,14.10
2022-11-12T16:07:27.376Z,14.10
2022-11-12T16:08:30.582Z,14.00
2022-11-12T16:09:32.885Z,14.10
2022-11-12T16:10:37.639Z,14.00
2022-11-12T16:11:39.795Z,14.00
2022-11-12T16:12:43.923Z,14.00
2022-11-12T16:13:46.034Z,14.00
2022-11-12T16:14:49.148Z,14.00
2022-11-12T16:15:53.495Z,13.90
2022-11-12T16:16:56.176Z,13.90
2022-11-12T16:18:00.159Z,13.90
2022-11-12T16:19:02.509Z,13.90
2022-11-12T16:20:13.150Z,13.90
2022-11-12T16:21:20.464Z,13.80
2022-11-12T16:22:25.670Z,13.70
2022-11-12T16:23:28.025Z,13.70
2022-11-12T16:24:31.411Z,13.70
2022-11-12T16:25:36.976Z,13.70
2022-11-12T16:26:41.438Z,13.60
2022-11-12T16:27:43.725Z,13.60
2022-11-12T16:28:46.816Z,13.60
2022-11-12T16:29:48.935Z,13.50
2022-11-12T16:30:52.060Z,13.50
2022-11-12T16:31:55.192Z,13.50
2022-11-12T16:32:57.814Z,13.40
2022-11-12T16:34:00.919Z,13.40
2022-11-12T16:35:03.154Z,13.40
2022-11-12T16:36:15.264Z,13.30
2022-11-12T16:37:18.372Z,13.30
2022-11-12T16:38:22.489Z,13.30
2022-11-12T16:39:25.838Z,13.20
2022-11-12T16:40:31.194Z,13.20
2022-11-12T16:41:34.387Z,13.20
2022-11-12T16:42:37.475Z,13.10
2022-11-12T16:43:39.884Z,13.10
2022-11-12T16:44:42.969Z,13.10
2022-11-12T16:45:47.073Z,13.00
2022-11-12T16:46:49.250Z,13.00
2022-11-12T16:47:54.254Z,13.00
2022-11-12T16:48:56.451Z,13.00
2022-11-12T16:49:59.558Z,12.90
2022-11-12T16:51:01.654Z,12.90
2022-11-12T16:52:06.251Z,12.90
2022-11-12T16:53:08.359Z,12.80
2022-11-12T16:54:13.173Z,12.80
2022-11-12T16:55:16.253Z,12.80
2022-11-12T16:56:21.340Z,12.80
2022-11-12T16:57:24.476Z,12.70
2022-11-12T16:58:26.592Z,12.70
2022-11-12T16:59:29.863Z,12.60
2022-11-12T17:00:33.351Z,12.60
2022-11-12T17:01:36.713Z,12.60
2022-11-12T17:02:44.317Z,12.50
2022-11-12T17:03:49.275Z,12.50
2022-11-12T17:04:52.751Z,12.50
2022-11-12T17:05:54.857Z,12.40
2022-11-12T17:06:58.028Z,12.40
2022-11-12T17:08:00.210Z,12.40
2022-11-12T17:09:03.734Z,12.40
2022-11-12T17:10:08.627Z,12.30
2022-11-12T17:11:12.080Z,12.30
2022-11-12T17:12:15.190Z,12.30
2022-11-12T17:13:17.752Z,12.30
2022-11-12T17:14:25.530Z,12.20
2022-11-12T17:15:30.157Z,12.20
2022-11-12T17:16:33.267Z,12.20
2022-11-12T17:17:35.454Z,12.10
2022-11-12T17:18:39.072Z,12.10
2022-11-12T17:19:42.251Z,12.10
2022-11-12T17:20:49.925Z,12.10
2022-11-12T17:21:54.436Z,12.00
2022-11-12T17:22:56.562Z,12.00
2022-11-12T17:23:59.683Z,12.00
2022-11-12T17:25:02.025Z,11.90
2022-11-12T17:26:08.943Z,11.90
2022-11-12T17:27:12.097Z,11.90
2022-11-12T17:28:14.403Z,11.80
2022-11-12T17:29:17.713Z,11.80
2022-11-12T17:30:20.014Z,11.80
2022-11-12T17:31:24.561Z,11.70
2022-11-12T17:32:27.708Z,11.70
2022-11-12T17:33:30.324Z,11.70
2022-11-12T17:34:33.683Z,11.70
2022-11-12T17:35:35.869Z,11.70
2022-11-12T17:36:43.382Z,11.70
2022-11-12T17:37:45.965Z,11.70
2022-11-12T17:38:49.617Z,11.70
2022-11-12T17:39:51.754Z,11.60
2022-11-12T17:40:56.933Z,11.60
2022-11-12T17:42:01.462Z,11.60
2022-11-12T17:43:03.655Z,11.60
2022-11-12T17:44:08.508Z,11.50
2022-11-12T17:45:10.829Z,11.50
2022-11-12T17:46:15.606Z,11.50
2022-11-12T17:47:17.720Z,11.50
2022-11-12T17:48:21.355Z,11.50
2022-11-12T17:49:23.479Z,11.40
2022-11-12T17:50:26.701Z,11.40
2022-11-12T17:51:30.508Z,11.40
2022-11-12T17:52:32.879Z,11.40
2022-11-12T17:53:36.228Z,11.40
2022-11-12T17:54:39.458Z,11.30
2022-11-12T17:55:41.711Z,11.30
2022-11-12T17:56:44.852Z,11.30
2022-11-12T17:57:49.282Z,11.30
2022-11-12T17:58:53.206Z,11.30
2022-11-12T17:59:56.317Z,11.20
2022-11-12T18:01:05.965Z,11.30
2022-11-12T18:02:12.792Z,11.20
2022-11-12T18:03:14.956Z,11.20
2022-11-12T18:04:18.033Z,11.20
2022-11-12T18:05:20.257Z,11.20
2022-11-12T18:06:25.575Z,11.10
2022-11-12T18:07:27.741Z,11.10
2022-11-12T18:08:30.903Z,11.10
2022-11-12T18:09:34.014Z,11.10
2022-11-12T18:10:36.478Z,11.10
2022-11-12T18:11:44.320Z,11.10
2022-11-12T18:12:47.875Z,11.10
2022-11-12T18:13:51.190Z,11.00
2022-11-12T18:14:53.326Z,11.00
2022-11-12T18:15:56.506Z,11.00
2022-11-12T18:16:59.167Z,10.90
2022-11-12T18:18:04.353Z,10.90
2022-11-12T18:19:10.709Z,10.90
2022-11-12T18:20:13.860Z,10.80
2022-11-12T18:21:17.310Z,10.80
2022-11-12T18:22:20.705Z,10.80
2022-11-12T18:23:22.903Z,10.80
2022-11-12T18:24:26.133Z,10.80
2022-11-12T18:25:28.263Z,10.80
2022-11-12T18:26:31.441Z,10.80
2022-11-12T18:27:33.608Z,10.80
2022-11-12T18:28:38.187Z,10.70
2022-11-12T18:29:41.506Z,10.70
2022-11-12T18:30:44.598Z,10.70
2022-11-12T18:31:48.386Z,10.70